Time;durP1;ratioP1;P1;durP2;ratioP2;P2;SDS_P1;SDS_P2;PMS_P1;PMS_P2;Temp;Humidity;BMP_temperature;BMP_pressure;BME280_temperature;BME280_humidity;BME280_pressure;Samples;Min_cycle;Max_cycle;Signal;HPM_P1;HPM_P2
2022/08/14 00:00:22;;;;;;;11.67;9.23;;;;;;;17.68;100.00;100687.88;4983888;28;20788;-74
2022/08/14 00:02:49;;;;;;;15.43;10.63;;;;;;;17.69;100.00;100693.06;4985969;28;20208;-73
2022/08/14 00:05:19;;;;;;;13.17;9.07;;;;;;;17.68;100.00;100693.16;4986219;28;20208;-74
2022/08/14 00:07:46;;;;;;;11.43;8.63;;;;;;;17.65;100.00;100691.53;4979927;28;20202;-73
2022/08/14 00:10:18;;;;;;;16.07;9.73;;;;;;;17.65;100.00;100685.41;4983211;28;20200;-75
2022/08/14 00:12:47;;;;;;;13.23;9.17;;;;;;;17.68;100.00;100680.81;4985129;28;20205;-75
2022/08/14 00:15:18;;;;;;;12.80;9.13;;;;;;;17.71;100.00;100678.03;4980987;28;20205;-75
2022/08/14 00:17:45;;;;;;;10.53;8.20;;;;;;;17.74;100.00;100669.06;4982270;28;20205;-74
2022/08/14 00:20:12;;;;;;;12.67;8.87;;;;;;;17.74;100.00;100669.06;4980927;28;20225;-74
2022/08/14 00:22:40;;;;;;;13.37;9.93;;;;;;;17.73;100.00;100664.72;4985066;28;20650;-74
2022/08/14 00:25:08;;;;;;;12.73;8.90;;;;;;;17.76;100.00;100661.94;4978402;28;20577;-74
2022/08/14 00:27:35;;;;;;;10.80;8.40;;;;;;;17.79;100.00;100673.16;4984512;28;20212;-74
2022/08/14 00:30:01;;;;;;;13.33;9.33;;;;;;;17.79;100.00;100669.69;4978230;28;20677;-75
2022/08/14 00:32:28;;;;;;;12.57;8.87;;;;;;;17.82;100.00;100664.25;4984244;28;20239;-74
2022/08/14 00:34:55;;;;;;;11.57;8.57;;;;;;;17.86;100.00;100670.22;4985735;28;20193;-73
2022/08/14 00:37:22;;;;;;;10.83;8.33;;;;;;;17.88;100.00;100660.44;4982194;28;20205;-75
2022/08/14 00:39:50;;;;;;;12.00;8.17;;;;;;;17.85;100.00;100658.78;4983961;28;20221;-74
2022/08/14 00:42:19;;;;;;;11.70;8.43;;;;;;;17.83;100.00;100657.16;4983660;28;20594;-74
2022/08/14 00:44:45;;;;;;;10.60;7.83;;;;;;;17.84;100.00;100654.44;4982920;28;20201;-74
2022/08/14 00:47:14;;;;;;;14.07;8.00;;;;;;;17.85;100.00;100655.28;4985989;28;20201;-74
2022/08/14 00:49:40;;;;;;;8.93;7.53;;;;;;;17.86;100.00;100657.88;4983945;28;20197;-74
2022/08/14 00:52:07;;;;;;;10.70;7.70;;;;;;;17.87;100.00;100659.59;5018082;23;20239;-71
2022/08/14 00:54:36;;;;;;;10.33;7.77;;;;;;;17.85;100.00;100650.84;5043059;28;20208;-71
2022/08/14 00:57:04;;;;;;;8.57;6.90;;;;;;;17.84;100.00;100654.44;5036226;28;20306;-71
2022/08/14 00:59:30;;;;;;;9.30;7.37;;;;;;;17.79;100.00;100652.06;5034200;28;20226;-71
2022/08/14 01:01:59;;;;;;;9.43;6.70;;;;;;;17.80;100.00;100650.28;5040199;28;20203;-71
2022/08/14 01:04:27;;;;;;;9.23;7.40;;;;;;;17.82;100.00;100652.81;5037632;28;20831;-71
2022/08/14 01:06:54;;;;;;;8.37;6.37;;;;;;;17.86;100.00;100652.59;5040294;28;20227;-71
2022/08/14 01:09:21;;;;;;;8.50;7.10;;;;;;;17.86;100.00;100647.34;5044643;28;20725;-71
2022/08/14 01:11:48;;;;;;;9.13;6.93;;;;;;;17.85;100.00;100653.50;5043088;28;20558;-71
2022/08/14 01:14:16;;;;;;;9.57;7.33;;;;;;;17.88;100.00;100663.06;5045568;28;20199;-71
2022/08/14 01:16:43;;;;;;;11.27;7.23;;;;;;;17.87;100.00;100654.31;5043772;28;20703;-71
2022/08/14 01:21:55;;;;;;;10.07;7.70;;;;;;;17.84;100.00;100651.81;5043260;28;20196;-71
2022/08/14 01:24:22;;;;;;;10.87;7.47;;;;;;;17.85;100.00;100647.38;5046308;28;20191;-71
2022/08/14 01:26:50;;;;;;;9.03;7.30;;;;;;;17.83;100.00;100650.09;5046510;28;20219;-71
2022/08/14 01:29:18;;;;;;;10.97;7.83;;;;;;;17.81;100.00;100648.50;5048933;28;20199;-71
2022/08/14 01:31:45;;;;;;;9.27;7.10;;;;;;;17.79;100.00;100630.13;5044693;28;20247;-71
2022/08/14 01:34:12;;;;;;;9.10;7.17;;;;;;;17.80;100.00;100634.47;5048621;28;20203;-71
2022/08/14 01:36:39;;;;;;;9.57;7.33;;;;;;;17.80;100.00;100629.19;5043024;28;20226;-71
2022/08/14 01:39:11;;;;;;;11.63;7.60;;;;;;;17.84;100.00;100638.63;5048232;28;20215;-71
2022/08/14 01:41:37;;;;;;;10.20;7.63;;;;;;;17.83;100.00;100644.81;5046759;28;20570;-71
2022/08/14 01:44:11;;;;;;;8.53;6.77;;;;;;;17.82;100.00;100648.41;5050439;28;20195;-71
2022/08/14 01:46:40;;;;;;;8.73;6.80;;;;;;;17.81;100.00;100644.06;5048430;28;20226;-71
2022/08/14 01:49:10;;;;;;;10.03;7.60;;;;;;;17.78;100.00;100645.09;5048431;28;20200;-71
2022/08/14 01:51:39;;;;;;;11.67;7.37;;;;;;;17.79;100.00;100635.41;5042150;28;20203;-71
2022/08/14 01:54:09;;;;;;;10.37;8.30;;;;;;;17.81;100.00;100643.22;5050108;28;20230;-71
2022/08/14 01:56:38;;;;;;;12.23;9.10;;;;;;;17.80;100.00;100652.94;5047349;28;20663;-71
2022/08/14 01:59:06;;;;;;;11.60;9.13;;;;;;;17.80;100.00;100652.94;5046157;28;20278;-71
2022/08/14 02:01:36;;;;;;;11.27;8.53;;;;;;;17.81;100.00;100654.63;5046156;28;20218;-71
2022/08/14 02:04:05;;;;;;;12.03;8.43;;;;;;;17.79;100.00;100657.34;5043119;28;20290;-71
2022/08/14 02:06:32;;;;;;;10.40;7.73;;;;;;;17.78;100.00;100646.88;5044550;28;20206;-71
2022/08/14 02:09:01;;;;;;;11.87;7.87;;;;;;;17.79;100.00;100641.50;5044524;28;20560;-71
2022/08/14 02:11:29;;;;;;;11.57;8.67;;;;;;;17.82;100.00;100637.00;5043692;28;20204;-71
2022/08/14 02:13:59;;;;;;;11.70;8.07;;;;;;;17.79;100.00;100636.25;5040472;28;20207;-71
2022/08/14 02:16:28;;;;;;;11.87;8.80;;;;;;;17.80;100.00;100634.47;5048016;28;20207;-71
2022/08/14 02:18:59;;;;;;;10.43;8.17;;;;;;;17.79;100.00;100624.84;5040118;28;20199;-71
2022/08/14 02:21:26;;;;;;;13.50;8.67;;;;;;;17.79;100.00;100627.50;5046369;28;20537;-71
2022/08/14 02:23:55;;;;;;;12.63;8.40;;;;;;;17.77;100.00;100622.28;5044048;28;20211;-71
2022/08/14 02:26:23;;;;;;;10.83;7.90;;;;;;;17.80;100.00;100626.56;5047584;28;20210;-71
2022/08/14 02:28:54;;;;;;;9.80;8.00;;;;;;;17.79;100.00;100628.31;5043143;28;20212;-71
2022/08/14 02:31:20;;;;;;;9.70;7.83;;;;;;;17.82;100.00;100626.44;5042186;28;20703;-71
2022/08/14 02:33:48;;;;;;;9.40;7.37;;;;;;;17.79;100.00;100622.22;5045182;28;20230;-71
2022/08/14 02:36:15;;;;;;;10.43;8.17;;;;;;;17.78;100.00;100618.75;5044838;28;20204;-71
2022/08/14 02:38:42;;;;;;;10.00;8.03;;;;;;;17.78;100.00;100626.66;5045991;28;20736;-71
2022/08/14 02:41:11;;;;;;;10.83;7.37;;;;;;;17.77;100.00;100622.28;5048247;28;20226;-71
2022/08/14 02:43:38;;;;;;;11.33;8.83;;;;;;;17.77;100.00;100613.53;5041214;28;20219;-71
2022/08/14 02:46:09;;;;;;;10.30;7.67;;;;;;;17.75;100.00;100618.91;5036705;28;20646;-71
2022/08/14 02:48:38;;;;;;;9.63;7.77;;;;;;;17.72;100.00;100619.06;5038349;28;20276;-71
2022/08/14 02:51:06;;;;;;;11.60;8.63;;;;;;;17.70;100.00;100626.22;5040759;28;20204;-71
2022/08/14 02:53:33;;;;;;;10.77;7.87;;;;;;;17.71;100.00;100632.31;5043828;28;20211;-71
2022/08/14 02:56:01;;;;;;;10.33;8.33;;;;;;;17.71;100.00;100633.19;5040885;28;20673;-71
2022/08/14 02:58:28;;;;;;;11.67;8.67;;;;;;;17.72;100.00;100624.34;5045952;28;20578;-71
2022/08/14 03:00:55;;;;;;;10.40;7.93;;;;;;;17.76;100.00;100614.47;5018727;28;20215;-71
2022/08/14 03:03:23;;;;;;;10.90;8.27;;;;;;;17.73;100.00;100615.50;5044673;28;20546;-71
2022/08/14 03:05:51;;;;;;;11.30;8.10;;;;;;;17.72;100.00;100620.84;5041112;28;20199;-71
2022/08/14 03:08:18;;;;;;;10.03;7.40;;;;;;;17.74;100.00;100617.19;5045840;28;20223;-71
2022/08/14 03:10:45;;;;;;;11.23;7.87;;;;;;;17.74;100.00;100617.19;5047546;28;20203;-71
2022/08/14 03:13:11;;;;;;;13.80;8.73;;;;;;;17.72;100.00;100615.59;5048653;28;20607;-71
2022/08/14 03:15:38;;;;;;;12.83;8.87;;;;;;;17.72;100.00;100613.78;5046013;28;20214;-71
2022/08/14 03:18:10;;;;;;;10.13;7.87;;;;;;;17.71;100.00;100609.47;5037682;28;20255;-71
2022/08/14 03:20:37;;;;;;;14.33;8.30;;;;;;;17.71;100.00;100609.47;5041244;28;20223;-71
2022/08/14 03:23:04;;;;;;;11.67;8.73;;;;;;;17.70;100.00;100604.28;5045534;28;20214;-71
2022/08/14 03:25:32;;;;;;;13.00;9.73;;;;;;;17.72;100.00;100608.50;5040550;28;20207;-71
2022/08/14 03:28:00;;;;;;;12.70;9.63;;;;;;;17.70;100.00;100604.28;5044572;28;20293;-71
2022/08/14 03:30:28;;;;;;;15.67;10.20;;;;;;;17.70;100.00;100599.00;5039716;28;20199;-71
2022/08/14 03:32:54;;;;;;;13.90;10.07;;;;;;;17.73;100.00;100601.44;5042758;28;20239;-71
2022/08/14 03:35:21;;;;;;;21.63;10.00;;;;;;;17.71;100.00;100609.47;5044572;28;20210;-71
2022/08/14 03:37:51;;;;;;;10.73;8.70;;;;;;;17.71;100.00;100605.97;5043095;28;20223;-71
2022/08/14 03:40:17;;;;;;;10.60;8.40;;;;;;;17.71;100.00;100606.84;5046316;28;20210;-71
2022/08/14 03:42:44;;;;;;;13.40;9.80;;;;;;;17.71;100.00;100598.94;5045211;28;20214;-71
2022/08/14 03:45:10;;;;;;;10.97;8.67;;;;;;;17.72;100.00;100607.69;5046647;28;20203;-71
2022/08/14 03:47:39;;;;;;;13.70;9.60;;;;;;;17.72;100.00;100599.78;5035636;28;20227;-71
2022/08/14 03:50:08;;;;;;;15.33;10.57;;;;;;;17.72;100.00;100600.59;5038450;28;20207;-71
2022/08/14 03:52:35;;;;;;;13.63;10.10;;;;;;;17.75;100.00;100596.97;5044911;28;20207;-71
2022/08/14 03:55:05;;;;;;;15.60;10.13;;;;;;;17.73;100.00;100597.03;5041756;28;20216;-72
2022/08/14 03:57:32;;;;;;;11.00;8.53;;;;;;;17.73;100.00;100596.19;5040097;28;20223;-71
2022/08/14 04:00:04;;;;;;;13.63;10.00;;;;;;;17.72;100.00;100589.22;5042514;28;20687;-71
2022/08/14 04:02:39;;;;;;;12.90;9.73;;;;;;;17.74;100.00;100589.97;5036212;28;20196;-71
2022/08/14 04:05:06;;;;;;;14.23;10.40;;;;;;;17.77;100.00;100589.81;5042262;28;20199;-71
2022/08/14 04:07:33;;;;;;;14.67;10.47;;;;;;;17.77;100.00;100590.66;5045264;28;20257;-71
2022/08/14 04:10:00;;;;;;;14.00;10.47;;;;;;;17.82;100.00;100584.25;5042716;28;20200;-71
2022/08/14 04:12:28;;;;;;;13.57;10.13;;;;;;;17.83;100.00;100588.59;5039051;28;20207;-71
2022/08/14 04:14:54;;;;;;;13.10;9.83;;;;;;;17.83;100.00;100580.69;5037702;28;20210;-71
2022/08/14 04:17:21;;;;;;;13.77;9.57;;;;;;;17.84;100.00;100583.25;5043718;28;20223;-71
2022/08/14 04:19:47;;;;;;;11.67;9.50;;;;;;;17.86;100.00;100578.75;5045304;28;20214;-71
2022/08/14 04:22:13;;;;;;;14.33;10.60;;;;;;;17.93;100.00;100581.91;5044813;28;20677;-71
2022/08/14 04:24:40;;;;;;;13.20;10.30;;;;;;;18.01;100.00;100584.09;5040000;28;20204;-71
2022/08/14 04:27:08;;;;;;;15.00;10.50;;;;;;;18.06;100.00;100577.59;5044136;28;20215;-71
2022/08/14 04:29:38;;;;;;;13.00;9.87;;;;;;;18.15;100.00;100573.56;5045433;28;20195;-72
2022/08/14 04:32:06;;;;;;;14.73;10.53;;;;;;;18.18;100.00;100570.75;5027814;28;20214;-71
2022/08/14 04:34:33;;;;;;;13.60;9.93;;;;;;;18.21;100.00;100570.59;5033967;28;20200;-71
2022/08/14 04:45:14;;;;;;;16.67;12.10;;;;;;;18.31;100.00;100566.47;5048128;28;20230;-71
2022/08/14 04:50:24;;;;;;;18.97;12.37;;;;;;;18.37;100.00;100565.25;5043637;28;20199;-72
2022/08/14 04:52:51;;;;;;;16.93;12.13;;;;;;;18.40;100.00;100564.22;5044792;28;20206;-72
2022/08/14 04:55:18;;;;;;;14.67;10.87;;;;;;;18.43;100.00;100559.59;5043628;28;20203;-72
2022/08/14 04:57:44;;;;;;;14.07;11.40;;;;;;;18.48;100.00;100568.09;5045975;28;20227;-71
2022/08/14 05:00:12;;;;;;;16.50;11.10;;;;;;;18.54;100.00;100565.09;5045552;28;20588;-71
2022/08/14 05:02:39;;;;;;;15.53;11.23;;;;;;;18.62;100.00;100561.97;5043869;28;20200;-71
2022/08/14 05:05:07;;;;;;;17.10;11.13;;;;;;;18.68;100.00;100566.03;5043751;28;20212;-71
2022/08/14 05:07:34;;;;;;;18.03;12.37;;;;;;;18.70;100.00;100562.38;5042913;28;20234;-71
2022/08/14 05:10:00;;;;;;;17.90;12.37;;;;;;;18.74;100.00;100555.09;5050605;28;20206;-71
2022/08/14 05:12:28;;;;;;;16.03;11.13;;;;;;;18.83;100.00;100559.84;5048313;28;20300;-71
2022/08/14 05:14:54;;;;;;;14.43;10.83;;;;;;;18.89;100.00;100556.84;5046511;28;20203;-71
2022/08/14 05:17:24;;;;;;;14.63;10.57;;;;;;;18.89;100.00;100556.84;5042029;28;20246;-72
2022/08/14 05:19:50;;;;;;;16.77;11.97;;;;;;;18.91;100.00;100554.09;5039148;28;20206;-71
2022/08/14 05:22:18;;;;;;;15.47;11.30;;;;;;;18.96;100.00;100543.22;5041088;28;20199;-71
2022/08/14 05:24:44;;;;;;;14.93;10.83;;;;;;;19.02;100.00;100543.72;5048525;28;20586;-71
2022/08/14 05:27:11;;;;;;;15.73;12.13;;;;;;;19.05;100.00;100545.28;5043386;28;20269;-71
2022/08/14 05:29:38;;;;;;;16.27;12.20;;;;;;;19.11;100.00;100542.28;5044835;28;20199;-71
2022/08/14 05:32:06;;;;;;;16.20;11.73;;;;;;;19.14;100.00;100544.72;5048271;28;20206;-71
2022/08/14 05:34:34;;;;;;;15.43;11.23;;;;;;;19.17;100.00;100539.25;5045371;28;20206;-71
2022/08/14 05:37:00;;;;;;;17.07;11.93;;;;;;;19.23;100.00;100538.00;5044444;28;20225;-71
2022/08/14 05:39:27;;;;;;;18.00;12.77;;;;;;;19.19;100.00;100537.38;5045423;28;20215;-71
2022/08/14 05:41:53;;;;;;;15.00;11.07;;;;;;;19.23;100.00;100546.78;5046027;28;20881;-71
2022/08/14 05:44:20;;;;;;;16.90;12.17;;;;;;;19.32;100.00;100544.50;5048579;28;20208;-71
2022/08/14 05:46:46;;;;;;;18.40;12.43;;;;;;;19.40;100.00;100535.16;5052323;28;20215;-72
2022/08/14 05:49:13;;;;;;;16.73;12.97;;;;;;;19.44;100.00;100536.63;5042831;28;20210;-71
2022/08/14 05:51:40;;;;;;;17.20;11.83;;;;;;;19.51;100.00;100530.94;5045304;28;20296;-71
2022/08/14 05:54:08;;;;;;;20.47;13.53;;;;;;;19.56;100.00;100535.00;5042717;28;20207;-71
2022/08/14 05:56:34;;;;;;;20.93;13.70;;;;;;;19.68;100.00;100530.69;5049134;28;20227;-71
2022/08/14 05:59:00;;;;;;;20.50;13.47;;;;;;;19.77;100.00;100524.84;5042379;28;20672;-71
2022/08/14 06:01:27;;;;;;;20.93;15.00;;;;;;;19.85;100.00;100514.56;5043994;28;20219;-71
2022/08/14 06:03:53;;;;;;;23.40;15.30;;;;;;;19.95;100.00;100525.41;5042173;28;20690;-71
2022/08/14 06:06:20;;;;;;;21.53;14.70;;;;;;;19.97;100.00;100526.13;5046981;28;20222;-72
2022/08/14 06:08:47;;;;;;;20.93;14.67;;;;;;;20.02;100.00;100523.19;5039181;28;20531;-71
2022/08/14 06:11:14;;;;;;;22.47;15.97;;;;;;;20.16;100.00;100522.25;5042867;28;20191;-71
2022/08/14 06:13:42;;;;;;;23.63;16.30;;;;;;;20.23;100.00;100524.38;5042625;28;20192;-71
2022/08/14 06:16:09;;;;;;;21.13;14.67;;;;;;;20.26;100.00;100525.13;5045565;28;21645;-72
2022/08/14 06:18:35;;;;;;;28.47;16.87;;;;;;;20.32;100.00;100514.97;5042743;28;20222;-72
2022/08/14 06:21:02;;;;;;;21.10;15.47;;;;;;;20.43;100.00;100515.06;5045313;28;20620;-72
2022/08/14 06:23:29;;;;;;;22.47;15.53;;;;;;;20.47;100.00;100517.50;5042492;28;20202;-71
2022/08/14 06:25:57;;;;;;;20.00;13.87;;;;;;;20.47;100.00;100507.75;5039868;28;20213;-71
2022/08/14 06:28:25;;;;;;;24.20;15.97;;;;;;;20.52;100.00;100507.44;5039893;28;20219;-71
2022/08/14 06:30:52;;;;;;;19.40;14.40;;;;;;;20.66;100.00;100506.50;5039648;28;20200;-71
2022/08/14 06:33:19;;;;;;;20.20;14.77;;;;;;;20.74;100.00;100502.34;5040742;28;20196;-72
2022/08/14 06:35:48;;;;;;;22.67;16.13;;;;;;;20.85;100.00;100504.25;5045835;28;20203;-72
2022/08/14 06:38:16;;;;;;;20.63;15.33;;;;;;;20.93;100.00;100506.34;5044374;28;20265;-70
2022/08/14 06:40:43;;;;;;;20.33;14.80;;;;;;;20.97;100.00;100506.00;5048077;28;20223;-72
2022/08/14 06:43:11;;;;;;;26.37;16.67;;;;;;;21.03;100.00;100504.72;5043822;28;20203;-70
2022/08/14 06:45:40;;;;;;;23.27;16.60;;;;;;;21.14;100.00;100496.84;5039243;28;20648;-72
2022/08/14 06:48:14;;;;;;;22.87;16.17;;;;;;;21.27;100.00;100494.16;5039389;28;20227;-70
2022/08/14 06:50:40;;;;;;;21.07;15.43;;;;;;;21.34;100.00;100497.22;5039884;28;20294;-72
2022/08/14 06:53:07;;;;;;;21.70;15.07;;;;;;;21.41;100.00;100487.84;5044365;28;20692;-71
2022/08/14 06:55:33;;;;;;;22.07;15.87;;;;;;;21.60;100.00;100486.50;5040996;28;20980;-72
2022/08/14 06:57:59;;;;;;;25.10;15.90;;;;;;;21.60;100.00;100484.69;5037919;28;20226;-72
2022/08/14 07:00:28;;;;;;;21.87;16.00;;;;;;;21.70;100.00;100490.16;5043964;28;20195;-71
2022/08/14 07:05:53;;;;;;;19.23;15.00;;;;;;;21.91;100.00;100503.59;4962524;28;20213;-72
2022/08/14 07:08:22;;;;;;;18.00;13.63;;;;;;;22.01;100.00;100499.28;4965292;28;20273;-71
2022/08/14 07:10:50;;;;;;;21.83;15.90;;;;;;;22.09;100.00;100486.28;4992397;28;20293;-72
2022/08/14 07:13:18;;;;;;;17.80;14.03;;;;;;;22.21;100.00;100483.66;5033794;28;20199;-71
2022/08/14 07:15:49;;;;;;;19.93;13.23;;;;;;;22.25;100.00;100485.94;5039948;28;20269;-71
2022/08/14 07:18:19;;;;;;;16.50;11.37;;;;;;;22.37;100.00;100483.31;5041487;28;20223;-72
2022/08/14 07:20:45;;;;;;;16.60;10.57;;;;;;;22.44;100.00;100484.53;5038315;28;20223;-72
2022/08/14 07:23:12;;;;;;;11.77;9.90;;;;;;;22.48;100.00;100488.66;5039195;28;20262;-72
2022/08/14 07:25:40;;;;;;;14.55;10.35;;;;;;;22.60;100.00;100484.19;5042670;28;20876;-72
2022/08/14 07:28:11;;;;;;;12.33;9.63;;;;;;;22.67;100.00;100480.94;5038650;28;20227;-70
2022/08/14 07:30:39;;;;;;;13.07;9.27;;;;;;;22.75;100.00;100482.97;5038129;28;20207;-71
2022/08/14 07:33:08;;;;;;;10.68;8.50;;;;;;;22.82;100.00;100484.16;5035489;28;20641;-70
2022/08/14 07:35:36;;;;;;;9.97;8.20;;;;;;;22.87;100.00;100489.13;5039529;28;20202;-72
2022/08/14 07:38:03;;;;;;;10.40;8.85;;;;;;;22.96;100.00;100477.75;5036520;28;20221;-72
2022/08/14 07:40:29;;;;;;;12.82;8.48;;;;;;;23.04;100.00;100477.13;5044795;28;20195;-70
2022/08/14 07:42:56;;;;;;;9.32;7.82;;;;;;;23.06;100.00;100489.34;5044402;28;20219;-72
2022/08/14 07:45:22;;;;;;;8.73;7.60;;;;;;;;;;5037605;28;20675;-72
2022/08/14 07:47:49;;;;;;;8.60;7.13;;;;;;;23.28;100.00;100500.06;5040467;28;20215;-70
2022/08/14 07:50:19;;;;;;;9.70;7.65;;;;;;;23.34;100.00;100486.25;5043036;28;20563;-72
2022/08/14 07:52:48;;;;;;;8.63;7.35;;;;;;;23.44;100.00;100487.19;5046336;28;20199;-72
2022/08/14 07:55:15;;;;;;;8.13;7.22;;;;;;;23.51;100.00;100493.69;5042923;28;20199;-72
2022/08/14 07:57:44;;;;;;;8.57;7.30;;;;;;;23.60;100.00;100490.25;5037789;28;20216;-70
2022/08/14 08:00:13;;;;;;;8.57;7.28;;;;;;;23.63;100.00;100478.53;5037641;28;20206;-72
2022/08/14 08:02:42;;;;;;;8.93;8.02;;;;;;;23.70;100.00;100477.03;5038099;28;20215;-71
2022/08/14 08:05:10;;;;;;;11.27;8.27;;;;;;;23.75;100.00;100471.34;5037042;28;20211;-71
2022/08/14 08:07:40;;;;;;;8.85;7.53;;;;;;;23.79;100.00;100470.94;5036913;28;20230;-72
2022/08/14 08:12:52;;;;;;;10.38;7.15;;;;;;;23.96;100.00;100474.88;5037330;28;20603;-71
2022/08/14 08:15:19;;;;;;;8.95;7.65;;;;;;;24.01;100.00;100466.50;5040080;28;20203;-72
2022/08/14 08:17:46;;;;;;;10.75;7.93;;;;;;;24.06;100.00;100468.75;5032257;28;20236;-71
2022/08/14 08:20:16;;;;;;;8.85;7.40;;;;;;;24.07;100.00;100476.63;5040598;28;20373;-72
2022/08/14 08:22:44;;;;;;;7.60;6.80;;;;;;;24.20;100.00;100479.06;5037865;28;20225;-71
2022/08/14 08:25:10;;;;;;;8.48;7.57;;;;;;;24.28;98.12;100481.91;5035911;28;20203;-72
2022/08/14 08:27:37;;;;;;;8.93;7.43;;;;;;;24.36;100.00;100465.25;5041695;28;20245;-70
2022/08/14 08:30:08;;;;;;;9.88;7.38;;;;;;;24.53;96.49;100480.66;5038867;28;20208;-72
2022/08/14 08:32:39;;;;;;;7.95;7.15;;;;;;;24.64;96.62;100477.03;5041756;28;20235;-72
2022/08/14 08:35:10;;;;;;;9.45;7.60;;;;;;;24.70;97.21;100467.69;5039710;28;20206;-70
2022/08/14 08:37:37;;;;;;;10.25;7.70;;;;;;;24.76;100.00;100462.63;5037320;28;20227;-71
2022/08/14 08:40:06;;;;;;;11.15;7.63;;;;;;;24.87;95.61;100475.03;5042247;28;20207;-71
2022/08/14 08:42:32;;;;;;;8.60;7.60;;;;;;;24.99;94.68;100469.59;5042042;28;20211;-71
2022/08/14 08:44:58;;;;;;;9.30;7.40;;;;;;;24.99;91.73;100464.25;5042636;28;20261;-71
2022/08/14 08:47:25;;;;;;;8.43;7.60;;;;;;;25.05;97.02;100458.38;5039619;28;20346;-70
2022/08/14 08:49:52;;;;;;;8.32;7.00;;;;;;;25.19;91.04;100465.09;5039371;28;20199;-69
2022/08/14 08:52:19;;;;;;;7.80;7.00;;;;;;;25.35;89.12;100464.59;5036007;28;20207;-71
2022/08/14 08:54:53;;;;;;;7.78;6.90;;;;;;;25.37;88.65;100458.16;5041007;28;20203;-70
2022/08/14 08:57:20;;;;;;;8.73;7.38;;;;;;;25.45;89.04;100454.75;5038626;28;20231;-72
2022/08/14 08:59:47;;;;;;;8.93;7.22;;;;;;;25.50;84.36;100455.19;5040422;28;20195;-70
2022/08/14 09:02:17;;;;;;;7.55;6.50;;;;;;;25.55;84.92;100449.44;5035444;28;20215;-71
2022/08/14 09:04:44;;;;;;;8.80;6.57;;;;;;;25.56;78.68;100454.63;5040297;28;20215;-72
2022/08/14 09:07:10;;;;;;;10.60;6.75;;;;;;;25.63;80.79;100444.25;5035735;28;20884;-71
2022/08/14 09:09:49;;;;;;;7.75;6.95;;;;;;;25.63;82.93;100439.75;5035682;28;20200;-70
2022/08/14 09:12:17;;;;;;;7.38;6.63;;;;;;;25.72;82.55;100432.72;5031751;28;20195;-71
2022/08/14 09:14:46;;;;;;;6.50;5.90;;;;;;;25.96;77.17;100439.41;5033596;28;20199;-71
2022/08/14 09:17:13;;;;;;;8.15;7.15;;;;;;;26.00;77.84;100435.50;5028883;28;20247;-71
2022/08/14 09:19:39;;;;;;;7.55;6.47;;;;;;;26.08;80.11;100430.25;5035909;28;20218;-71
2022/08/14 09:22:06;;;;;;;7.68;6.97;;;;;;;26.14;79.50;100432.34;5031238;28;20630;-72
2022/08/14 09:24:33;;;;;;;9.32;7.20;;;;;;;26.33;77.87;100438.59;5041715;28;20211;-72
2022/08/14 09:26:59;;;;;;;6.75;6.05;;;;;;;26.39;76.11;100430.00;5035776;28;20218;-70
2022/08/14 09:29:25;;;;;;;8.27;5.57;;;;;;;26.49;69.22;100429.94;5043956;28;20199;-71
2022/08/14 09:31:56;;;;;;;6.15;5.43;;;;;;;26.45;65.46;100432.06;5043184;28;20199;-71
2022/08/14 09:34:37;;;;;;;9.23;6.20;;;;;;;26.45;67.49;100416.03;5044905;28;20715;-71
2022/08/14 09:37:19;;;;;;;6.68;5.53;;;;;;;26.51;67.96;100412.78;5042020;28;20237;-72
2022/08/14 09:39:59;;;;;;;9.13;6.70;;;;;;;26.69;72.09;100402.16;5042679;28;20191;-71
2022/08/14 09:42:39;;;;;;;7.13;6.40;;;;;;;26.92;67.42;100409.75;5041090;28;20219;-71
2022/08/14 09:45:14;;;;;;;8.60;6.15;;;;;;;26.93;68.99;100411.41;5044540;28;20202;-71
2022/08/14 09:47:43;;;;;;;8.30;7.10;;;;;;;26.80;64.20;100415.28;5041642;28;20226;-71
2022/08/14 09:50:21;;;;;;;8.05;6.57;;;;;;;26.87;67.53;100402.16;5043857;28;20198;-71
2022/08/14 09:52:53;;;;;;;9.93;6.60;;;;;;;26.95;67.96;100402.25;5043296;28;20261;-71
2022/08/14 09:55:21;;;;;;;6.53;5.93;;;;;;;27.04;64.30;100397.84;5039811;28;20202;-71
2022/08/14 09:57:47;;;;;;;7.43;6.47;;;;;;;27.10;69.72;100393.69;5042882;28;20234;-71
2022/08/14 10:00:18;;;;;;;6.43;5.80;;;;;;;27.16;65.42;100395.78;5043175;28;20199;-70
2022/08/14 10:02:56;;;;;;;5.85;5.10;;;;;;;27.26;60.38;100398.34;5043028;28;20284;-71
2022/08/14 10:05:31;;;;;;;5.57;4.97;;;;;;;27.25;60.20;100391.34;5037247;28;20726;-70
2022/08/14 10:07:58;;;;;;;5.65;5.15;;;;;;;27.31;58.81;100391.56;5041539;28;20234;-71
2022/08/14 10:10:30;;;;;;;4.93;4.47;;;;;;;27.51;57.89;100394.06;5042138;28;20532;-71
2022/08/14 10:12:58;;;;;;;5.60;5.10;;;;;;;27.60;56.93;100390.47;5044652;28;20210;-69
2022/08/14 10:15:25;;;;;;;5.20;4.70;;;;;;;27.72;59.60;100378.50;5045426;28;20188;-71
2022/08/14 10:18:08;;;;;;;5.50;4.57;;;;;;;27.87;56.40;100378.75;5040833;28;20226;-71
2022/08/14 10:20:37;;;;;;;5.40;4.90;;;;;;;27.95;57.10;100376.16;5039696;28;20660;-71
2022/08/14 10:23:16;;;;;;;6.97;4.97;;;;;;;28.20;55.76;100375.44;5043924;28;20234;-71
2022/08/14 10:25:44;;;;;;;6.22;4.35;;;;;;;28.14;54.50;100375.09;5034800;28;20227;-71
2022/08/14 10:28:14;;;;;;;4.50;4.10;;;;;;;28.20;57.29;100367.41;5039761;28;20637;-71
2022/08/14 10:30:46;;;;;;;5.00;4.50;;;;;;;28.48;55.21;100363.47;5044288;28;20837;-71
2022/08/14 10:33:23;;;;;;;5.00;4.50;;;;;;;28.63;52.87;100371.75;5043437;28;20219;-71
2022/08/14 10:35:50;;;;;;;5.25;4.75;;;;;;;28.41;53.60;100365.13;5035456;28;20202;-71
2022/08/14 10:38:26;;;;;;;5.45;4.95;;;;;;;28.36;52.83;100354.06;5040740;28;20219;-69
2022/08/14 10:40:52;;;;;;;5.30;4.90;;;;;;;28.69;57.10;100346.13;5033717;28;20219;-71
2022/08/14 10:43:24;;;;;;;8.27;5.43;;;;;;;28.79;51.47;100349.47;5043807;28;20214;-70
2022/08/14 10:45:56;;;;;;;5.50;5.00;;;;;;;28.86;52.84;100344.28;5041157;28;20269;-69
2022/08/14 10:48:24;;;;;;;5.32;4.70;;;;;;;28.86;52.47;100338.94;5044248;28;20219;-71
2022/08/14 10:50:52;;;;;;;6.85;4.97;;;;;;;28.97;52.85;100330.56;5039636;28;20207;-71
2022/08/14 10:53:35;;;;;;;5.10;4.68;;;;;;;28.87;50.13;100336.09;5040544;28;20211;-68
2022/08/14 10:56:08;;;;;;;5.93;4.93;;;;;;;28.60;51.66;100326.50;5031989;28;20203;-71
2022/08/14 10:58:35;;;;;;;5.45;4.95;;;;;;;28.43;51.15;100317.53;5032726;28;20635;-71
2022/08/14 11:01:04;;;;;;;4.95;4.50;;;;;;;28.52;53.25;100323.75;5037885;28;20207;-71
2022/08/14 11:03:39;;;;;;;5.93;5.32;;;;;;;28.57;52.52;100318.78;5036681;28;20568;-71
2022/08/14 11:06:18;;;;;;;5.63;5.13;;;;;;;28.50;53.45;100315.88;5038258;28;20207;-71
2022/08/14 11:08:45;;;;;;;6.13;5.20;;;;;;;28.58;54.92;100304.34;5040364;28;20207;-71
2022/08/14 11:11:12;;;;;;;5.25;4.72;;;;;;;28.59;54.88;100300.69;5036042;28;20203;-71
2022/08/14 11:13:42;;;;;;;5.43;4.93;;;;;;;28.68;54.65;100296.16;5037560;28;20208;-71
2022/08/14 11:16:10;;;;;;;6.15;5.20;;;;;;;28.87;55.83;100292.34;5039445;28;20214;-71
2022/08/14 11:18:38;;;;;;;6.40;5.75;;;;;;;28.93;53.75;100285.44;5033614;28;20243;-71
2022/08/14 11:21:06;;;;;;;4.78;4.30;;;;;;;29.06;47.50;100308.09;5036613;28;20196;-70
2022/08/14 11:23:34;;;;;;;3.63;3.33;;;;;;;28.78;46.61;100298.69;5040857;28;20220;-71
2022/08/14 11:26:02;;;;;;;5.50;4.15;;;;;;;28.64;48.71;100294.84;5026345;28;20198;-70
2022/08/14 11:28:33;;;;;;;5.82;4.22;;;;;;;28.77;49.32;100286.28;5042657;28;20235;-68
2022/08/14 11:31:02;;;;;;;4.97;4.43;;;;;;;29.06;50.14;100281.25;5035690;28;20188;-70
2022/08/14 11:33:31;;;;;;;6.93;5.30;;;;;;;29.21;51.21;100273.38;5041227;28;20203;-70
2022/08/14 11:36:00;;;;;;;5.47;4.45;;;;;;;29.24;49.23;100285.63;5038101;28;20206;-69